createdAt,value
2022-09-04T00:00:36.697Z,3.30
2022-09-04T00:03:23.676Z,4.80
2022-09-04T00:05:56.373Z,3.40
2022-09-04T00:08:45.595Z,3.20
2022-09-04T00:11:39.218Z,2.45
2022-09-04T00:14:10.786Z,2.90
2022-09-04T00:16:45.963Z,4.00
2022-09-04T00:19:25.855Z,2.10
2022-09-04T00:21:54.535Z,4.93
2022-09-04T00:24:43.883Z,2.25
2022-09-04T00:27:20.521Z,1.90
2022-09-04T00:30:09.545Z,2.08
2022-09-04T00:33:07.672Z,4.18
2022-09-04T00:35:39.997Z,3.28
2022-09-04T00:38:44.613Z,3.53
2022-09-04T00:41:27.223Z,1.90
2022-09-04T00:44:06.832Z,2.30
2022-09-04T00:47:07.123Z,4.30
2022-09-04T00:50:02.894Z,3.67
2022-09-04T00:52:42.397Z,1.75
2022-09-04T00:55:34.096Z,2.45
2022-09-04T00:58:37.429Z,2.62
2022-09-04T01:01:05.486Z,2.03
2022-09-04T01:03:50.544Z,2.78
2022-09-04T01:06:30.794Z,2.03
2022-09-04T01:09:02.414Z,4.50
2022-09-04T01:11:54.866Z,2.83
2022-09-04T01:14:30.790Z,2.37
2022-09-04T01:17:16.311Z,5.37
2022-09-04T01:20:10.317Z,2.62
2022-09-04T01:22:45.316Z,1.85
2022-09-04T01:25:28.862Z,3.37
2022-09-04T01:27:59.801Z,3.97
2022-09-04T01:30:27.623Z,3.28
2022-09-04T01:33:32.969Z,2.60
2022-09-04T01:36:29.071Z,3.28
2022-09-04T01:39:01.105Z,2.87
2022-09-04T01:42:01.324Z,2.10
2022-09-04T01:44:29.161Z,3.62
2022-09-04T01:47:04.771Z,4.35
2022-09-04T01:49:37.464Z,4.07
2022-09-04T01:52:18.435Z,2.85
2022-09-04T01:55:25.430Z,2.75
2022-09-04T01:58:18.559Z,2.85
2022-09-04T02:01:14.504Z,2.47
2022-09-04T02:04:01.649Z,1.95
2022-09-04T02:06:52.789Z,5.28
2022-09-04T02:09:30.947Z,4.55
2022-09-04T02:12:10.226Z,3.53
2022-09-04T02:14:50.683Z,3.47
2022-09-04T02:17:22.208Z,3.33
2022-09-04T02:20:12.270Z,2.50
2022-09-04T02:22:46.664Z,3.08
2022-09-04T02:25:20.359Z,4.45
2022-09-04T02:28:23.006Z,3.70
2022-09-04T02:31:19.818Z,3.12
2022-09-04T02:33:52.119Z,3.42
2022-09-04T02:36:31.271Z,2.70
2022-09-04T02:39:23.375Z,2.83
2022-09-04T02:42:05.134Z,3.65
2022-09-04T02:45:13.282Z,2.20
2022-09-04T02:47:52.249Z,3.17
2022-09-04T02:50:47.309Z,2.87
2022-09-04T02:53:38.912Z,3.20
2022-09-04T02:56:27.625Z,2.30
2022-09-04T02:58:55.253Z,2.80
2022-09-04T03:02:00.597Z,2.83
2022-09-04T03:04:32.944Z,2.78
2022-09-04T03:07:03.645Z,4.32
2022-09-04T03:09:38.776Z,4.87
2022-09-04T03:12:31.361Z,3.47
2022-09-04T03:15:14.669Z,2.80
2022-09-04T03:17:48.860Z,2.65
2022-09-04T03:20:29.026Z,3.53
2022-09-04T03:23:30.107Z,3.83
2022-09-04T03:26:05.439Z,2.40
2022-09-04T03:29:02.519Z,3.08
2022-09-04T03:31:33.306Z,2.95
2022-09-04T03:34:24.495Z,3.10
2022-09-04T03:36:53.284Z,2.03
2022-09-04T03:39:58.432Z,2.65
2022-09-04T03:43:03.721Z,4.82
2022-09-04T03:45:46.372Z,2.55
2022-09-04T03:48:36.320Z,4.37
2022-09-04T03:51:16.131Z,6.28
2022-09-04T03:53:51.045Z,4.87
2022-09-04T03:56:50.982Z,6.65
2022-09-04T03:59:42.025Z,9.60
2022-09-04T04:02:35.334Z,7.20
2022-09-04T04:05:12.372Z,9.80
2022-09-04T04:07:58.420Z,9.55
2022-09-04T04:10:47.840Z,10.93
2022-09-04T04:13:34.521Z,8.52
2022-09-04T04:16:05.209Z,9.18
2022-09-04T04:18:57.325Z,8.15
2022-09-04T04:21:57.007Z,6.62
2022-09-04T04:24:43.541Z,7.50
2022-09-04T04:27:37.207Z,11.90
2022-09-04T04:30:07.930Z,8.85
2022-09-04T04:32:42.192Z,11.90
2022-09-04T04:35:28.811Z,10.32
2022-09-04T04:38:12.789Z,8.80
2022-09-04T04:41:11.213Z,13.23
2022-09-04T04:44:09.544Z,10.60
2022-09-04T04:46:59.820Z,11.20
2022-09-04T04:49:45.949Z,14.05
2022-09-04T04:52:39.419Z,20.45
2022-09-04T04:55:07.465Z,14.32
2022-09-04T04:58:02.284Z,16.92
2022-09-04T05:00:34.551Z,19.50
2022-09-04T05:03:22.803Z,13.40
2022-09-04T05:06:23.140Z,12.75
2022-09-04T05:09:03.301Z,12.65
2022-09-04T05:11:55.728Z,13.95
2022-09-04T05:15:00.823Z,12.37
2022-09-04T05:17:38.643Z,9.18
2022-09-04T05:20:47.917Z,9.43
2022-09-04T05:23:24.900Z,9.30
2022-09-04T05:26:23.243Z,8.43
2022-09-04T05:29:32.309Z,8.77
2022-09-04T05:32:30.869Z,12.63
2022-09-04T05:34:58.699Z,7.90
2022-09-04T05:37:54.419Z,6.65
2022-09-04T05:40:38.659Z,6.62
2022-09-04T05:43:23.123Z,6.55
2022-09-04T05:46:13.578Z,5.57
2022-09-04T05:48:51.445Z,6.95
2022-09-04T05:51:50.055Z,11.93
2022-09-04T05:54:26.831Z,6.37
2022-09-04T05:57:19.103Z,8.02
2022-09-04T05:59:59.540Z,8.10
2022-09-04T06:03:05.221Z,8.15
2022-09-04T06:06:07.127Z,6.35
2022-09-04T06:08:54.798Z,7.85
2022-09-04T06:11:28.195Z,8.32
2022-09-04T06:14:35.623Z,7.78
2022-09-04T06:17:27.642Z,8.40
2022-09-04T06:20:01.265Z,9.18
2022-09-04T06:23:04.387Z,9.15
2022-09-04T06:25:50.535Z,8.00
2022-09-04T06:28:39.496Z,8.18
2022-09-04T06:31:24.448Z,7.47
2022-09-04T06:34:17.190Z,7.47
2022-09-04T06:36:51.076Z,8.13
2022-09-04T06:39:34.583Z,9.70
2022-09-04T06:42:22.841Z,16.87
2022-09-04T06:45:15.470Z,9.15
2022-09-04T06:47:58.389Z,7.60
2022-09-04T06:50:50.645Z,7.10
2022-09-04T06:53:39.709Z,8.82
2022-09-04T06:56:46.693Z,7.97
2022-09-04T06:59:29.813Z,9.95
2022-09-04T07:02:12.406Z,7.37
2022-09-04T07:05:11.244Z,8.05
2022-09-04T07:07:47.975Z,6.93
2022-09-04T07:10:37.134Z,7.80
2022-09-04T07:13:38.293Z,6.43
2022-09-04T07:16:18.165Z,6.87
2022-09-04T07:19:18.108Z,5.93
2022-09-04T07:22:01.598Z,6.32
2022-09-04T07:24:35.350Z,8.30
2022-09-04T07:27:16.914Z,6.50
2022-09-04T07:30:01.642Z,6.18
2022-09-04T07:32:46.396Z,8.55
2022-09-04T07:35:35.506Z,5.70
2022-09-04T07:38:32.839Z,6.90
2022-09-04T07:41:17.642Z,6.47
2022-09-04T07:44:24.592Z,5.35
2022-09-04T07:47:32.543Z,6.25
2022-09-04T07:50:19.984Z,7.72
2022-09-04T07:53:14.829Z,6.03
2022-09-04T07:55:47.985Z,5.47
2022-09-04T07:58:25.852Z,4.95
2022-09-04T08:01:07.773Z,5.10
2022-09-04T08:03:59.945Z,4.62
2022-09-04T08:06:58.314Z,4.62
2022-09-04T08:09:51.911Z,3.90
2022-09-04T08:12:19.567Z,3.90
2022-09-04T08:15:17.462Z,4.62
2022-09-04T08:18:16.536Z,5.03
2022-09-04T08:20:56.308Z,4.90
2022-09-04T08:24:15.168Z,3.97
2022-09-04T08:27:00.903Z,4.62
2022-09-04T08:30:05.445Z,4.18
2022-09-04T08:32:39.299Z,4.55
2022-09-04T08:35:28.391Z,5.35
2022-09-04T08:38:08.106Z,5.22
2022-09-04T08:40:52.222Z,4.15
2022-09-04T08:43:29.130Z,5.10
2022-09-04T08:46:14.961Z,3.85
2022-09-04T08:49:11.658Z,3.87
2022-09-04T08:52:10.847Z,3.90
2022-09-04T08:55:01.938Z,3.83
2022-09-04T08:58:02.403Z,3.55
2022-09-04T09:00:43.999Z,6.32
2022-09-04T09:03:56.748Z,3.47
2022-09-04T09:06:55.416Z,3.60
2022-09-04T09:09:50.808Z,3.62
2022-09-04T09:12:41.434Z,4.35
2022-09-04T09:15:57.450Z,3.67
2022-09-04T09:18:40.599Z,3.83
2022-09-04T09:21:12.639Z,3.78
2022-09-04T09:23:52.519Z,3.42
2022-09-04T09:26:30.625Z,4.95
2022-09-04T09:29:29.493Z,3.25
2022-09-04T09:32:15.902Z,3.00
2022-09-04T09:34:55.994Z,3.45
2022-09-04T09:37:32.184Z,3.00
2022-09-04T09:40:23.539Z,3.85
2022-09-04T09:43:06.627Z,3.25
2022-09-04T09:45:49.363Z,3.22
2022-09-04T09:48:54.872Z,4.60
2022-09-04T09:51:34.626Z,3.05
2022-09-04T09:54:49.397Z,4.05
2022-09-04T09:57:40.136Z,4.72
2022-09-04T10:00:10.344Z,2.60
2022-09-04T10:02:47.030Z,3.62
2022-09-04T10:05:42.333Z,3.60
2022-09-04T10:08:47.328Z,3.37
2022-09-04T10:11:26.794Z,4.68
2022-09-04T10:14:00.622Z,4.00
2022-09-04T10:17:03.113Z,4.53
2022-09-04T10:19:49.489Z,3.65
2022-09-04T10:22:26.209Z,3.83
2022-09-04T10:25:08.999Z,4.32
2022-09-04T10:27:55.496Z,2.97
2022-09-04T10:30:24.237Z,3.65
2022-09-04T10:33:11.507Z,2.78
2022-09-04T10:35:43.546Z,2.90
2022-09-04T10:38:26.426Z,4.22
2022-09-04T10:41:22.047Z,3.45
2022-09-04T10:44:27.322Z,3.72
2022-09-04T10:47:01.685Z,3.62
2022-09-04T10:49:35.468Z,2.97
2022-09-04T10:52:22.937Z,3.00
2022-09-04T10:55:15.930Z,3.83
2022-09-04T10:58:05.842Z,2.50
2022-09-04T11:00:36.556Z,2.30
2022-09-04T11:03:35.406Z,2.33
2022-09-04T11:06:43.453Z,2.20
2022-09-04T11:09:11.204Z,1.70
2022-09-04T11:12:03.036Z,1.60
2022-09-04T11:14:50.997Z,3.25
2022-09-04T11:18:06.074Z,1.40
2022-09-04T11:21:11.088Z,1.70
2022-09-04T11:23:50.814Z,2.75
2022-09-04T11:26:40.346Z,1.48
2022-09-04T11:29:19.129Z,2.17
2022-09-04T11:32:17.169Z,1.67
2022-09-04T11:35:09.290Z,1.58
2022-09-04T11:37:51.914Z,1.42
2022-09-04T11:40:25.032Z,2.70
2022-09-04T11:43:16.585Z,1.70
2022-09-04T11:46:02.537Z,1.77
2022-09-04T11:49:00.349Z,1.60
2022-09-04T11:52:03.356Z,1.70
2022-09-04T11:54:52.602Z,1.90
2022-09-04T11:58:10.935Z,1.70
2022-09-04T12:00:59.620Z,2.20
2022-09-04T12:04:04.671Z,2.33
2022-09-04T12:06:38.567Z,1.77
2022-09-04T12:09:37.203Z,2.35
2022-09-04T12:12:37.881Z,1.62
2022-09-04T12:15:26.899Z,1.85
2022-09-04T12:18:06.528Z,2.78
2022-09-04T12:20:56.685Z,2.55
2022-09-04T12:23:33.215Z,2.10
2022-09-04T12:26:19.095Z,1.00
2022-09-04T12:29:10.414Z,1.30
2022-09-04T12:32:08.306Z,1.92
2022-09-04T12:35:11.295Z,2.25
2022-09-04T12:37:44.749Z,1.75
2022-09-04T12:40:49.698Z,2.35
2022-09-04T12:43:54.363Z,1.40
2022-09-04T12:46:40.522Z,1.02
2022-09-04T12:49:20.134Z,1.90
2022-09-04T12:51:52.446Z,1.50
2022-09-04T12:54:47.246Z,2.85
2022-09-04T12:57:36.215Z,1.35
2022-09-04T13:00:14.370Z,2.97
2022-09-04T13:03:04.054Z,1.85
2022-09-04T13:05:39.408Z,1.45
2022-09-04T13:08:23.258Z,2.05
2022-09-04T13:11:10.194Z,1.00
2022-09-04T13:14:02.861Z,3.92
2022-09-04T13:17:03.175Z,1.85
2022-09-04T13:19:47.104Z,3.55
2022-09-04T13:22:33.375Z,1.77
2022-09-04T13:25:17.343Z,1.27
2022-09-04T13:27:58.579Z,2.12
2022-09-04T13:30:26.733Z,1.62
2022-09-04T13:33:12.302Z,1.25
2022-09-04T13:35:56.428Z,1.42
2022-09-04T13:38:42.396Z,1.05
2022-09-04T13:41:43.969Z,1.87
2022-09-04T13:44:39.508Z,1.25
2022-09-04T13:47:16.979Z,1.23
2022-09-04T13:49:49.252Z,1.00
2022-09-04T13:52:21.342Z,0.93
2022-09-04T13:55:05.584Z,1.95
2022-09-04T13:57:39.972Z,0.70
2022-09-04T14:00:09.160Z,1.33
2022-09-04T14:02:37.866Z,0.98
2022-09-04T14:05:11.709Z,0.80
2022-09-04T14:07:44.764Z,1.55
2022-09-04T14:10:14.349Z,1.98
2022-09-04T14:12:46.627Z,1.30
2022-09-04T14:15:41.405Z,3.70
2022-09-04T14:18:29.059Z,1.00
2022-09-04T14:21:18.304Z,1.70
2022-09-04T14:23:54.167Z,1.58
2022-09-04T14:26:37.384Z,0.75
2022-09-04T14:29:27.046Z,0.95
2022-09-04T14:32:19.827Z,1.15
2022-09-04T14:35:09.671Z,1.30
2022-09-04T14:38:03.484Z,3.22
2022-09-04T14:40:35.030Z,1.12
2022-09-04T14:43:18.284Z,1.23
2022-09-04T14:45:55.409Z,2.47
2022-09-04T14:48:25.422Z,1.00
2022-09-04T14:50:58.791Z,1.30
2022-09-04T14:53:30.294Z,3.25
2022-09-04T14:56:08.326Z,2.35
2022-09-04T14:58:46.797Z,1.05
2022-09-04T15:01:22.728Z,1.92
2022-09-04T15:04:13.611Z,1.30
2022-09-04T15:07:11.557Z,2.80
2022-09-04T15:09:40.577Z,1.48
2022-09-04T15:12:24.784Z,1.25
2022-09-04T15:15:25.567Z,1.10
2022-09-04T15:18:18.200Z,2.28
2022-09-04T15:20:59.993Z,1.15
2022-09-04T15:23:38.570Z,1.48
2022-09-04T15:26:08.552Z,1.90
2022-09-04T15:32:01.351Z,1.00
2022-09-04T15:34:29.435Z,2.90
2022-09-04T15:37:45.295Z,4.30
2022-09-04T15:43:52.898Z,1.77
2022-09-04T15:46:55.373Z,1.10
2022-09-04T15:49:41.788Z,1.87
2022-09-04T15:52:31.954Z,2.85
2022-09-04T15:55:26.293Z,0.82
2022-09-04T15:58:06.340Z,1.17
2022-09-04T16:00:38.048Z,1.20
2022-09-04T16:03:30.303Z,2.67
2022-09-04T16:06:00.550Z,0.93
2022-09-04T16:08:30.593Z,1.15
2022-09-04T16:11:01.316Z,0.93
2022-09-04T16:13:30.011Z,1.12
2022-09-04T16:16:04.596Z,1.48
2022-09-04T16:18:38.650Z,1.80
2022-09-04T16:21:21.796Z,1.35
2022-09-04T16:23:49.622Z,0.90
2022-09-04T16:26:20.425Z,2.92
2022-09-04T16:28:56.895Z,2.65
2022-09-04T16:31:32.167Z,1.23
2022-09-04T16:34:03.901Z,1.33
2022-09-04T16:36:45.221Z,1.52
2022-09-04T16:39:38.835Z,1.30
2022-09-04T16:42:26.521Z,1.37
2022-09-04T16:45:12.072Z,0.80
2022-09-04T16:47:48.571Z,1.40
2022-09-04T16:50:24.732Z,3.47
2022-09-04T16:53:13.760Z,1.27
2022-09-04T16:56:00.003Z,1.20
2022-09-04T16:58:47.289Z,1.30
2022-09-04T17:01:21.122Z,1.10
2022-09-04T17:04:12.937Z,1.33
2022-09-04T17:07:09.863Z,1.25
2022-09-04T17:10:25.896Z,1.00
2022-09-04T17:12:59.392Z,1.08
2022-09-04T17:15:59.699Z,1.67
2022-09-04T17:18:28.208Z,1.50
2022-09-04T17:29:15.828Z,1.25
2022-09-04T17:40:41.261Z,1.02
2022-09-04T17:40:47.892Z,1.70
2022-09-04T17:40:47.892Z,1.65
2022-09-04T17:43:23.415Z,2.92
2022-09-04T17:46:03.260Z,1.58
2022-09-04T17:48:32.751Z,2.67
2022-09-04T17:51:04.694Z,2.97
2022-09-04T17:53:34.812Z,3.28
2022-09-04T17:56:13.501Z,2.10
2022-09-04T17:58:50.598Z,1.60
2022-09-04T18:01:20.547Z,1.30
2022-09-04T18:04:02.782Z,4.05
2022-09-04T18:06:59.141Z,4.57
2022-09-04T18:09:56.430Z,4.32
2022-09-04T18:12:46.125Z,3.92
2022-09-04T18:15:33.751Z,6.15
2022-09-04T18:18:23.437Z,5.65
2022-09-04T18:21:31.662Z,4.07
2022-09-04T18:24:08.657Z,4.45
2022-09-04T18:26:46.894Z,3.65
2022-09-04T18:29:56.844Z,2.60
2022-09-04T18:37:19.847Z,2.70
2022-09-04T18:37:20.592Z,3.53
2022-09-04T18:39:08.758Z,3.10
2022-09-04T18:47:53.318Z,6.35
2022-09-04T18:50:24.012Z,4.78
2022-09-04T18:50:38.910Z,2.83
2022-09-04T18:53:35.271Z,2.58
2022-09-04T18:56:23.763Z,2.80
2022-09-04T18:58:57.713Z,3.78
2022-09-04T19:01:43.786Z,3.08
2022-09-04T19:04:46.209Z,3.15
2022-09-04T19:07:32.949Z,2.67
2022-09-04T19:10:21.126Z,3.30
2022-09-04T19:12:59.804Z,3.87
2022-09-04T19:15:45.843Z,5.12
2022-09-04T19:18:28.482Z,3.97
2022-09-04T19:21:14.892Z,5.60
2022-09-04T19:24:03.350Z,5.22
2022-09-04T19:26:51.152Z,4.55
2022-09-04T19:29:21.016Z,3.83
2022-09-04T19:32:06.177Z,4.62
2022-09-04T19:34:43.121Z,5.60
2022-09-04T19:38:19.263Z,5.07
2022-09-04T19:46:11.287Z,4.28
2022-09-04T19:46:19.778Z,5.12
2022-09-04T19:46:25.703Z,3.60
2022-09-04T19:53:18.629Z,2.35
2022-09-04T19:53:24.471Z,3.00
2022-09-04T19:55:24.004Z,3.12
2022-09-04T19:57:52.725Z,2.30
2022-09-04T20:00:42.888Z,3.85
2022-09-04T20:03:45.503Z,2.20
2022-09-04T20:06:35.954Z,4.10
2022-09-04T20:09:08.768Z,3.90
2022-09-04T20:11:56.379Z,4.60
2022-09-04T20:14:41.377Z,2.70
2022-09-04T20:17:32.083Z,4.12
2022-09-04T20:20:02.565Z,3.62
2022-09-04T20:22:50.176Z,4.25
2022-09-04T20:25:25.512Z,4.00
2022-09-04T20:28:16.399Z,3.03
2022-09-04T20:30:45.902Z,3.60
2022-09-04T20:33:25.295Z,5.40
2022-09-04T20:36:01.102Z,4.25
2022-09-04T20:38:57.033Z,4.72
2022-09-04T20:41:37.394Z,3.67
2022-09-04T20:44:13.765Z,3.25
2022-09-04T20:51:13.797Z,4.47
2022-09-04T20:53:05.756Z,3.85
2022-09-04T20:53:20.278Z,3.05
2022-09-04T20:55:51.085Z,4.85
2022-09-04T21:02:50.654Z,3.95
2022-09-04T21:03:09.890Z,3.28
2022-09-04T21:04:18.285Z,5.22
2022-09-04T21:07:08.819Z,5.72
2022-09-04T21:09:59.275Z,2.72
2022-09-04T21:12:40.332Z,3.40
2022-09-04T21:15:18.753Z,2.83
2022-09-04T21:18:01.092Z,4.32
2022-09-04T21:20:59.879Z,4.82
2022-09-04T21:23:53.027Z,3.55
2022-09-04T21:26:32.369Z,2.97
2022-09-04T21:29:42.008Z,2.33
2022-09-04T21:32:20.576Z,3.00
2022-09-04T21:34:59.061Z,3.33
2022-09-04T21:37:45.760Z,5.03
2022-09-04T21:40:52.746Z,3.33
2022-09-04T21:43:35.607Z,6.80
2022-09-04T21:46:32.821Z,4.87
2022-09-04T21:49:30.272Z,3.45
2022-09-04T21:52:20.881Z,3.12
2022-09-04T21:57:06.854Z,3.70
2022-09-04T22:02:27.500Z,8.77
2022-09-04T22:02:45.023Z,10.50
2022-09-04T22:03:58.719Z,11.90
2022-09-04T22:11:55.610Z,7.20
2022-09-04T22:13:30.217Z,6.53
2022-09-04T22:13:41.988Z,7.07
2022-09-04T22:16:14.503Z,6.12
2022-09-04T22:19:01.017Z,5.47
2022-09-04T22:22:03.504Z,5.43
2022-09-04T22:25:02.393Z,5.00
2022-09-04T22:28:09.703Z,3.62
2022-09-04T22:30:51.833Z,3.45
2022-09-04T22:33:34.896Z,3.58
2022-09-04T22:36:25.058Z,3.12
2022-09-04T22:39:05.040Z,3.42
2022-09-04T22:42:06.566Z,3.17
2022-09-04T22:45:10.243Z,5.10
2022-09-04T22:47:44.424Z,5.65
2022-09-04T22:50:40.737Z,6.10
2022-09-04T22:53:19.024Z,5.10
2022-09-04T22:56:23.310Z,4.62
2022-09-04T22:59:26.905Z,3.35
2022-09-04T23:02:13.746Z,3.20
2022-09-04T23:05:15.669Z,2.80
2022-09-04T23:13:32.557Z,3.25
2022-09-04T23:14:01.803Z,2.40
2022-09-04T23:14:12.057Z,3.35
2022-09-04T23:16:52.089Z,3.10
2022-09-04T23:23:01.347Z,3.37
2022-09-04T23:26:42.367Z,4.37
2022-09-04T23:26:48.006Z,3.40
2022-09-04T23:29:44.592Z,4.65
2022-09-04T23:32:34.077Z,5.65
2022-09-04T23:35:36.261Z,2.90
2022-09-04T23:38:37.457Z,6.45
2022-09-04T23:41:12.661Z,4.22
2022-09-04T23:44:25.420Z,3.40
2022-09-04T23:47:06.868Z,4.75
2022-09-04T23:49:59.169Z,4.85
2022-09-04T23:52:49.287Z,3.30
2022-09-04T23:55:37.250Z,2.50
2022-09-04T23:58:35.600Z,4.57
